createdAt,value
2022-12-29T00:02:37.572Z,8.34
2022-12-29T00:05:24.532Z,8.43
2022-12-29T00:08:09.919Z,8.25
2022-12-29T00:10:55.518Z,8.32
2022-12-29T00:14:20.258Z,8.41
2022-12-29T00:17:08.327Z,8.45
2022-12-29T00:20:12.839Z,8.49
2022-12-29T00:23:17.850Z,8.49
2022-12-29T00:26:23.290Z,8.54
2022-12-29T00:29:28.397Z,8.55
2022-12-29T00:32:32.290Z,8.52
2022-12-29T00:35:25.372Z,8.57
2022-12-29T00:38:31.453Z,8.59
2022-12-29T00:41:35.406Z,8.48
2022-12-29T00:44:21.041Z,8.60
2022-12-29T00:47:06.473Z,8.45
2022-12-29T00:49:51.946Z,8.50
2022-12-29T00:52:37.233Z,8.52
2022-12-29T00:55:22.959Z,8.56
2022-12-29T00:58:08.709Z,8.62
2022-12-29T01:01:02.365Z,8.68
2022-12-29T01:03:47.854Z,8.72
2022-12-29T01:06:33.987Z,8.76
2022-12-29T01:09:38.464Z,8.79
2022-12-29T01:12:41.367Z,8.81
2022-12-29T01:15:26.861Z,8.85
2022-12-29T01:18:12.553Z,8.77
2022-12-29T01:21:02.596Z,8.76
2022-12-29T01:23:48.222Z,8.78
2022-12-29T01:26:33.972Z,8.89
2022-12-29T01:29:19.299Z,8.88
2022-12-29T01:32:05.211Z,8.84
2022-12-29T01:34:50.862Z,8.94
2022-12-29T01:37:36.318Z,9.02
2022-12-29T01:40:21.655Z,9.02
2022-12-29T01:43:12.024Z,8.96
2022-12-29T01:45:57.686Z,8.96
2022-12-29T01:48:44.458Z,9.06
2022-12-29T01:51:32.608Z,8.76
2022-12-29T01:54:35.536Z,9.05
2022-12-29T01:57:25.919Z,9.11
2022-12-29T02:00:14.685Z,9.00
2022-12-29T02:03:00.347Z,9.00
2022-12-29T02:05:54.944Z,8.95
2022-12-29T02:08:41.542Z,8.97
2022-12-29T02:11:29.450Z,9.12
2022-12-29T02:14:15.259Z,9.02
2022-12-29T02:17:33.209Z,9.08
2022-12-29T02:20:52.994Z,9.06
2022-12-29T02:24:02.709Z,9.03
2022-12-29T02:27:05.846Z,9.10
2022-12-29T02:30:26.923Z,9.04
2022-12-29T02:33:31.074Z,9.11
2022-12-29T02:36:23.534Z,9.14
2022-12-29T02:39:41.570Z,9.12
2022-12-29T02:42:36.174Z,9.18
2022-12-29T02:45:31.133Z,9.18
2022-12-29T02:48:33.677Z,9.22
2022-12-29T02:51:29.652Z,9.25
2022-12-29T02:54:37.496Z,9.15
2022-12-29T02:57:23.067Z,9.27
2022-12-29T03:00:13.423Z,9.24
2022-12-29T03:03:23.998Z,9.22
2022-12-29T03:06:31.351Z,9.29
2022-12-29T03:09:44.649Z,9.35
2022-12-29T03:13:11.861Z,9.28
2022-12-29T03:16:28.763Z,9.30
2022-12-29T03:19:24.319Z,9.37
2022-12-29T03:22:28.697Z,9.32
2022-12-29T03:25:26.336Z,9.34
2022-12-29T03:28:17.235Z,9.43
2022-12-29T03:31:05.390Z,9.46
2022-12-29T03:33:52.300Z,9.46
2022-12-29T03:36:45.497Z,9.49
2022-12-29T03:39:32.173Z,9.50
2022-12-29T03:42:22.420Z,9.54
2022-12-29T03:45:10.108Z,9.57
2022-12-29T03:47:55.978Z,9.44
2022-12-29T03:50:41.874Z,9.46
2022-12-29T03:53:27.435Z,9.47
2022-12-29T03:56:13.062Z,9.57
2022-12-29T03:58:58.168Z,9.67
2022-12-29T04:01:43.757Z,9.70
2022-12-29T04:04:29.431Z,9.65
2022-12-29T04:07:14.702Z,9.54
2022-12-29T04:10:00.244Z,9.66
2022-12-29T04:12:47.456Z,9.65
2022-12-29T04:15:33.151Z,9.74
2022-12-29T04:18:18.734Z,9.69
2022-12-29T04:21:05.363Z,9.71
2022-12-29T04:23:50.979Z,9.64
2022-12-29T04:26:36.271Z,9.58
2022-12-29T04:29:22.085Z,9.46
2022-12-29T04:32:07.244Z,9.40
2022-12-29T04:34:52.902Z,9.32
2022-12-29T04:37:38.324Z,9.31
2022-12-29T04:40:24.269Z,9.36
2022-12-29T04:43:10.844Z,9.24
2022-12-29T04:45:56.297Z,9.30
2022-12-29T04:48:42.195Z,9.20
2022-12-29T04:51:27.527Z,9.24
2022-12-29T04:54:12.835Z,9.28
2022-12-29T04:56:58.426Z,9.27
2022-12-29T04:59:43.677Z,9.27
2022-12-29T05:02:29.519Z,9.35
2022-12-29T05:05:15.177Z,9.33
2022-12-29T05:08:00.513Z,9.34
2022-12-29T05:10:46.685Z,9.24
2022-12-29T05:13:32.226Z,9.30
2022-12-29T05:16:17.751Z,9.29
2022-12-29T05:19:04.456Z,9.34
2022-12-29T05:21:49.852Z,9.37
2022-12-29T05:24:35.435Z,9.39
2022-12-29T05:27:21.109Z,9.43
2022-12-29T05:30:07.361Z,9.49
2022-12-29T05:32:53.292Z,9.55
2022-12-29T05:35:38.517Z,9.54
2022-12-29T05:38:24.412Z,9.53
2022-12-29T05:41:10.448Z,9.60
2022-12-29T05:43:55.984Z,9.55
2022-12-29T05:46:41.735Z,9.77
2022-12-29T05:49:27.007Z,9.66
2022-12-29T05:52:12.768Z,9.78
2022-12-29T05:54:58.122Z,9.84
2022-12-29T05:57:43.698Z,9.88
2022-12-29T06:00:29.243Z,9.86
2022-12-29T06:03:14.887Z,9.78
2022-12-29T06:06:00.454Z,10.00
2022-12-29T06:08:45.920Z,9.92
2022-12-29T06:11:31.467Z,9.94
2022-12-29T06:14:17.068Z,10.03
2022-12-29T06:17:02.718Z,9.95
2022-12-29T06:19:48.337Z,10.01
2022-12-29T06:22:33.672Z,10.09
2022-12-29T06:25:19.279Z,10.04
2022-12-29T06:28:06.245Z,10.11
2022-12-29T06:30:51.616Z,10.20
2022-12-29T06:33:38.386Z,10.01
2022-12-29T06:36:24.083Z,10.14
2022-12-29T06:39:10.910Z,10.03
2022-12-29T06:41:56.286Z,9.99
2022-12-29T06:44:41.665Z,10.17
2022-12-29T06:47:27.709Z,10.23
2022-12-29T06:50:13.373Z,10.25
2022-12-29T06:52:58.772Z,10.39
2022-12-29T06:55:44.388Z,10.15
2022-12-29T06:58:30.048Z,10.45
2022-12-29T07:01:15.851Z,10.48
2022-12-29T07:04:01.521Z,10.51
2022-12-29T07:06:46.803Z,10.47
2022-12-29T07:09:32.559Z,10.61
2022-12-29T07:12:17.958Z,10.73
2022-12-29T07:15:03.638Z,10.74
2022-12-29T07:17:50.487Z,10.56
2022-12-29T07:20:36.030Z,10.68
2022-12-29T07:23:21.645Z,10.51
2022-12-29T07:26:10.490Z,10.43
2022-12-29T07:28:56.101Z,10.26
2022-12-29T07:31:41.684Z,10.14
2022-12-29T07:34:27.210Z,10.07
2022-12-29T07:37:12.916Z,10.00
2022-12-29T07:39:58.290Z,9.99
2022-12-29T07:42:43.764Z,9.83
2022-12-29T07:45:29.869Z,9.88
2022-12-29T07:48:15.378Z,9.66
2022-12-29T07:51:01.054Z,9.72
2022-12-29T07:53:46.414Z,9.70
2022-12-29T07:56:31.892Z,9.69
2022-12-29T07:59:18.093Z,9.61
2022-12-29T08:02:03.735Z,9.56
2022-12-29T08:04:49.408Z,9.57
2022-12-29T08:07:34.735Z,9.50
2022-12-29T08:10:20.294Z,9.52
2022-12-29T08:13:05.896Z,9.55
2022-12-29T08:15:51.635Z,9.55
2022-12-29T08:18:37.098Z,9.45
2022-12-29T08:21:22.742Z,9.59
2022-12-29T08:24:09.248Z,9.56
2022-12-29T08:26:55.140Z,9.48
2022-12-29T08:29:40.889Z,9.44
2022-12-29T08:32:27.452Z,9.49
2022-12-29T08:35:13.727Z,9.55
2022-12-29T08:37:59.272Z,9.68
2022-12-29T08:40:44.985Z,9.61
2022-12-29T08:43:31.511Z,9.74
2022-12-29T08:46:17.882Z,9.82
2022-12-29T08:49:03.527Z,9.96
2022-12-29T08:51:48.867Z,10.07
2022-12-29T08:54:34.199Z,10.34
2022-12-29T08:57:19.637Z,10.22
2022-12-29T09:00:05.717Z,10.16
2022-12-29T09:02:51.390Z,10.38
2022-12-29T09:05:36.938Z,10.28
2022-12-29T09:08:26.158Z,10.86
2022-12-29T09:11:18.977Z,11.52
2022-12-29T09:14:05.064Z,11.95
2022-12-29T09:17:11.557Z,11.35
2022-12-29T09:19:57.442Z,11.26
2022-12-29T09:22:43.694Z,12.63
2022-12-29T09:25:29.431Z,13.30
2022-12-29T09:28:14.926Z,13.96
2022-12-29T09:31:01.364Z,13.73
2022-12-29T09:33:47.532Z,13.20
2022-12-29T09:36:32.693Z,12.71
2022-12-29T09:39:18.343Z,12.00
2022-12-29T09:42:47.433Z,11.86
2022-12-29T09:45:46.476Z,11.78
2022-12-29T09:48:38.320Z,12.01
2022-12-29T09:51:26.251Z,11.95
2022-12-29T09:54:30.963Z,11.80
2022-12-29T09:57:22.404Z,11.39
2022-12-29T10:00:21.600Z,11.46
2022-12-29T10:03:16.982Z,11.57
2022-12-29T10:06:14.717Z,11.74
2022-12-29T10:09:47.104Z,12.02
2022-12-29T10:12:40.885Z,12.50
2022-12-29T10:15:49.832Z,13.95
2022-12-29T10:18:56.020Z,14.56
2022-12-29T10:22:03.830Z,15.25
2022-12-29T10:24:52.049Z,16.49
2022-12-29T10:27:38.169Z,16.42
2022-12-29T10:30:24.489Z,14.67
2022-12-29T10:33:19.236Z,16.59
2022-12-29T10:36:22.400Z,17.73
2022-12-29T10:39:19.780Z,17.75
2022-12-29T10:42:10.321Z,18.52
2022-12-29T10:44:58.225Z,19.66
2022-12-29T10:47:54.496Z,18.77
2022-12-29T10:50:43.755Z,19.76
2022-12-29T10:53:46.141Z,19.55
2022-12-29T10:56:36.359Z,21.19
2022-12-29T10:59:24.663Z,21.39
2022-12-29T11:02:10.398Z,20.87
2022-12-29T11:05:09.829Z,21.74
2022-12-29T11:08:01.097Z,21.59
2022-12-29T11:10:47.158Z,21.10
2022-12-29T11:13:39.207Z,19.94
2022-12-29T11:16:31.729Z,18.30
2022-12-29T11:19:26.037Z,18.07
2022-12-29T11:22:22.617Z,18.28
2022-12-29T11:25:13.771Z,19.08
2022-12-29T11:28:14.964Z,20.10
2022-12-29T11:31:02.506Z,20.72
2022-12-29T11:33:47.996Z,20.94
2022-12-29T11:36:36.256Z,21.25
2022-12-29T11:39:30.552Z,22.33
2022-12-29T11:42:18.569Z,22.00
2022-12-29T11:45:25.464Z,21.68
2022-12-29T11:48:19.466Z,22.38
2022-12-29T11:51:05.325Z,21.22
2022-12-29T11:53:54.168Z,20.94
2022-12-29T11:56:44.565Z,20.56
2022-12-29T11:59:35.209Z,20.96
2022-12-29T12:02:38.827Z,21.25
2022-12-29T12:05:45.837Z,22.39
2022-12-29T12:08:39.492Z,23.37
2022-12-29T12:11:37.345Z,21.16
2022-12-29T12:14:26.476Z,17.79
2022-12-29T12:17:25.787Z,16.63
2022-12-29T12:20:39.433Z,18.53
2022-12-29T12:23:37.827Z,17.24
2022-12-29T12:26:33.378Z,15.52
2022-12-29T12:29:43.951Z,14.56
2022-12-29T12:32:47.265Z,14.55
2022-12-29T12:35:50.217Z,15.67
2022-12-29T12:38:50.743Z,15.48
2022-12-29T12:41:58.372Z,15.02
2022-12-29T12:44:59.957Z,14.64
2022-12-29T12:47:54.088Z,14.10
2022-12-29T12:50:59.150Z,13.70
2022-12-29T12:54:24.127Z,13.48
2022-12-29T12:57:35.521Z,12.94
2022-12-29T13:00:24.155Z,12.95
2022-12-29T13:03:18.364Z,12.93
2022-12-29T13:06:25.243Z,13.02
2022-12-29T13:09:23.659Z,12.87
2022-12-29T13:12:23.034Z,12.84
2022-12-29T13:15:42.160Z,12.81
2022-12-29T13:18:45.196Z,12.86
2022-12-29T13:22:06.008Z,12.40
2022-12-29T13:25:42.700Z,12.35
2022-12-29T13:28:46.750Z,11.94
2022-12-29T13:31:45.553Z,11.93
2022-12-29T13:34:54.352Z,11.87
2022-12-29T13:37:51.937Z,12.02
2022-12-29T13:40:44.136Z,12.09
2022-12-29T13:43:32.569Z,11.99
2022-12-29T13:46:36.539Z,12.03
2022-12-29T13:49:25.400Z,12.19
2022-12-29T13:52:22.242Z,11.99
2022-12-29T13:55:21.025Z,12.13
2022-12-29T13:58:35.868Z,12.19
2022-12-29T14:01:35.278Z,12.03
2022-12-29T14:04:29.638Z,11.99
2022-12-29T14:07:18.427Z,12.07
2022-12-29T14:10:04.273Z,11.91
2022-12-29T14:12:50.784Z,11.86
2022-12-29T14:15:42.080Z,11.77
2022-12-29T14:18:31.754Z,11.72
2022-12-29T14:21:17.518Z,11.79
2022-12-29T14:24:41.063Z,11.79
2022-12-29T14:27:29.107Z,11.70
2022-12-29T14:30:50.670Z,11.77
2022-12-29T14:33:36.399Z,11.73
2022-12-29T14:36:27.654Z,11.69
2022-12-29T14:39:33.981Z,11.69
2022-12-29T14:42:23.584Z,11.70
2022-12-29T14:45:29.581Z,11.63
2022-12-29T14:48:33.914Z,11.47
2022-12-29T14:51:30.259Z,11.36
2022-12-29T14:54:33.893Z,11.38
2022-12-29T14:57:38.819Z,11.26
2022-12-29T15:00:28.247Z,11.14
2022-12-29T15:03:17.831Z,10.88
2022-12-29T15:06:12.236Z,10.99
2022-12-29T15:09:30.542Z,10.98
2022-12-29T15:12:34.112Z,11.09
2022-12-29T15:15:28.001Z,10.94
2022-12-29T15:18:34.685Z,10.89
2022-12-29T15:21:26.769Z,10.63
2022-12-29T15:24:12.188Z,10.68
2022-12-29T15:26:57.468Z,10.79
2022-12-29T15:29:47.449Z,10.74
2022-12-29T15:32:45.186Z,10.81
2022-12-29T15:35:35.581Z,10.98
2022-12-29T15:38:33.434Z,10.73
2022-12-29T15:42:00.444Z,10.80
2022-12-29T15:44:46.724Z,10.97
2022-12-29T15:47:33.271Z,10.78
2022-12-29T15:50:29.268Z,10.84
2022-12-29T15:53:29.157Z,10.63
2022-12-29T15:56:15.128Z,10.26
2022-12-29T15:59:01.500Z,10.12
2022-12-29T16:01:47.521Z,10.00
2022-12-29T16:04:43.229Z,9.88
2022-12-29T16:07:41.977Z,9.77
2022-12-29T16:10:39.720Z,9.69
2022-12-29T16:13:29.650Z,9.74
2022-12-29T16:16:20.118Z,9.56
2022-12-29T16:19:14.787Z,9.68
2022-12-29T16:22:01.806Z,9.65
2022-12-29T16:24:47.489Z,9.70
2022-12-29T16:27:41.845Z,9.73
2022-12-29T16:30:33.882Z,9.51
2022-12-29T16:33:47.597Z,9.71
2022-12-29T16:36:34.418Z,9.72
2022-12-29T16:39:24.725Z,9.55
2022-12-29T16:42:50.619Z,9.71
2022-12-29T16:45:46.514Z,9.73
2022-12-29T16:48:46.385Z,9.74
2022-12-29T16:51:35.869Z,9.74
2022-12-29T16:54:25.286Z,9.86
2022-12-29T16:57:12.016Z,9.79
2022-12-29T17:00:02.074Z,9.93
2022-12-29T17:02:50.360Z,9.98
2022-12-29T17:05:35.804Z,10.01
2022-12-29T17:08:23.786Z,10.04
2022-12-29T17:11:51.346Z,10.06
2022-12-29T17:14:53.613Z,9.77
2022-12-29T17:17:40.684Z,9.80
2022-12-29T17:20:29.515Z,9.61
2022-12-29T17:23:21.132Z,9.53
2022-12-29T17:26:11.091Z,9.43
2022-12-29T17:28:56.314Z,9.43
2022-12-29T17:31:41.737Z,9.51
2022-12-29T17:34:27.473Z,9.63
2022-12-29T17:37:24.653Z,9.65
2022-12-29T17:40:18.885Z,9.61
2022-12-29T17:43:04.648Z,9.59
2022-12-29T17:45:55.133Z,9.79
2022-12-29T17:48:40.686Z,9.72
2022-12-29T17:51:26.244Z,9.81
2022-12-29T17:54:21.147Z,9.84
2022-12-29T17:57:06.531Z,9.79
2022-12-29T17:59:52.282Z,9.81
2022-12-29T18:02:38.188Z,9.69
2022-12-29T18:05:26.521Z,9.71
2022-12-29T18:08:12.598Z,9.65
2022-12-29T18:10:58.845Z,9.56
2022-12-29T18:13:47.084Z,9.53
2022-12-29T18:16:32.795Z,9.62
2022-12-29T18:19:18.193Z,9.71
2022-12-29T18:22:03.669Z,9.58
2022-12-29T18:24:49.624Z,9.47
2022-12-29T18:27:35.081Z,9.55
2022-12-29T18:30:20.624Z,9.58
2022-12-29T18:33:06.414Z,9.39
2022-12-29T18:35:57.025Z,9.51
2022-12-29T18:38:43.361Z,9.58
2022-12-29T18:41:32.339Z,9.53
2022-12-29T18:44:17.931Z,9.54
2022-12-29T18:47:03.686Z,9.53
2022-12-29T18:49:49.071Z,9.48
2022-12-29T18:52:34.420Z,9.51
2022-12-29T18:55:22.951Z,9.49
2022-12-29T18:58:08.518Z,9.45
2022-12-29T19:00:54.557Z,9.50
2022-12-29T19:03:40.174Z,9.46
2022-12-29T19:06:25.618Z,9.38
2022-12-29T19:09:11.010Z,9.43
2022-12-29T19:11:56.418Z,9.48
2022-12-29T19:14:41.821Z,9.62
2022-12-29T19:17:27.616Z,9.67
2022-12-29T19:20:34.269Z,9.53
2022-12-29T19:23:22.449Z,9.61
2022-12-29T19:26:27.139Z,9.46
2022-12-29T19:29:15.611Z,9.45
2022-12-29T19:32:01.371Z,9.33
2022-12-29T19:34:48.704Z,9.28
2022-12-29T19:37:36.304Z,9.23
2022-12-29T19:40:25.530Z,9.51
2022-12-29T19:43:12.242Z,9.42
2022-12-29T19:45:57.714Z,9.48
2022-12-29T19:48:43.293Z,9.31
2022-12-29T19:51:28.669Z,9.51
2022-12-29T19:54:14.281Z,9.52
2022-12-29T19:56:59.965Z,9.50
2022-12-29T19:59:45.536Z,9.41
2022-12-29T20:02:34.863Z,9.39
2022-12-29T20:05:20.475Z,9.37
2022-12-29T20:08:06.301Z,9.41
2022-12-29T20:11:02.343Z,9.33
2022-12-29T20:13:48.391Z,9.15
2022-12-29T20:16:38.374Z,9.00
2022-12-29T20:19:30.459Z,9.05
2022-12-29T20:22:16.128Z,9.00
2022-12-29T20:25:34.454Z,8.86
2022-12-29T20:28:06.708Z,8.93
2022-12-29T20:31:03.821Z,9.01
2022-12-29T20:33:49.365Z,9.06
2022-12-29T20:36:36.985Z,9.04
2022-12-29T20:39:22.647Z,9.07
2022-12-29T20:42:08.185Z,9.03
2022-12-29T20:44:53.524Z,9.04
2022-12-29T20:47:38.914Z,9.06
2022-12-29T20:50:24.195Z,9.09
2022-12-29T20:53:10.684Z,9.09
2022-12-29T20:56:01.330Z,8.91
2022-12-29T20:59:25.405Z,8.96
2022-12-29T21:01:53.431Z,8.72
2022-12-29T21:05:21.690Z,8.84
2022-12-29T21:07:44.972Z,8.89
2022-12-29T21:10:30.883Z,8.85
2022-12-29T21:13:17.440Z,8.87
2022-12-29T21:16:06.049Z,8.67
2022-12-29T21:18:51.599Z,8.75
2022-12-29T21:21:37.415Z,8.61
2022-12-29T21:24:22.865Z,8.62
2022-12-29T21:27:08.423Z,8.49
2022-12-29T21:29:54.134Z,8.51
2022-12-29T21:32:41.396Z,8.62
2022-12-29T21:35:26.911Z,8.47
2022-12-29T21:38:12.978Z,8.50
2022-12-29T21:41:10.185Z,8.42
2022-12-29T21:44:14.185Z,8.48
2022-12-29T21:46:59.917Z,8.37
2022-12-29T21:49:45.288Z,8.30
2022-12-29T21:52:30.849Z,8.08
2022-12-29T21:55:16.093Z,8.06
2022-12-29T21:58:20.251Z,8.01
2022-12-29T22:01:24.354Z,8.24
2022-12-29T22:04:32.853Z,8.14
2022-12-29T22:07:36.852Z,8.15
2022-12-29T22:10:40.955Z,7.88
2022-12-29T22:13:26.591Z,7.91
2022-12-29T22:16:12.574Z,8.06
2022-12-29T22:18:58.235Z,7.95
2022-12-29T22:21:43.884Z,8.02
2022-12-29T22:24:29.158Z,8.09
2022-12-29T22:27:14.424Z,7.96
2022-12-29T22:30:00.100Z,7.99
2022-12-29T22:32:45.715Z,8.10
2022-12-29T22:35:31.158Z,8.06
2022-12-29T22:38:16.584Z,8.09
2022-12-29T22:41:02.012Z,8.11
2022-12-29T22:43:47.666Z,8.25
2022-12-29T22:46:33.215Z,8.15
2022-12-29T22:49:18.632Z,8.23
2022-12-29T22:52:04.865Z,8.14
2022-12-29T22:54:50.256Z,8.06
2022-12-29T22:57:36.396Z,8.16
2022-12-29T23:00:22.382Z,8.28
2022-12-29T23:03:08.250Z,8.18
2022-12-29T23:05:58.627Z,8.20
2022-12-29T23:08:44.481Z,8.29
2022-12-29T23:11:30.343Z,8.31
2022-12-29T23:14:17.280Z,8.22
2022-12-29T23:17:02.730Z,8.12
2022-12-29T23:19:48.466Z,8.00
2022-12-29T23:22:34.040Z,7.85
2022-12-29T23:25:19.463Z,7.69
2022-12-29T23:28:07.957Z,7.89
2022-12-29T23:30:53.380Z,8.04
2022-12-29T23:33:38.712Z,7.95
2022-12-29T23:36:24.688Z,8.04
2022-12-29T23:39:17.919Z,7.93
2022-12-29T23:42:03.447Z,7.95
2022-12-29T23:44:48.836Z,8.07
2022-12-29T23:47:34.424Z,8.09
2022-12-29T23:50:19.904Z,8.11
2022-12-29T23:53:05.353Z,8.04
2022-12-29T23:55:54.682Z,8.06
2022-12-29T23:58:40.168Z,7.99
